sensor_id;sensor_type;location;lat;lon;timestamp;P1;durP1;ratioP1;P2;durP2;ratioP2
39486;SDS011;25173;50.430;18.926;2023-03-21T00:02:43;29.73;;;23.00;;
39486;SDS011;25173;50.430;18.926;2023-03-21T00:05:44;28.30;;;20.05;;
39486;SDS011;25173;50.430;18.926;2023-03-21T00:08:51;26.73;;;19.52;;
39486;SDS011;25173;50.430;18.926;2023-03-21T00:11:51;25.58;;;19.67;;
39486;SDS011;25173;50.430;18.926;2023-03-21T00:14:52;25.92;;;20.13;;
39486;SDS011;25173;50.430;18.926;2023-03-21T00:17:53;29.45;;;20.15;;
39486;SDS011;25173;50.430;18.926;2023-03-21T00:21:03;30.35;;;21.70;;
39486;SDS011;25173;50.430;18.926;2023-03-21T00:24:05;29.13;;;21.73;;
39486;SDS011;25173;50.430;18.926;2023-03-21T00:27:07;26.40;;;20.58;;
39486;SDS011;25173;50.430;18.926;2023-03-21T00:30:08;26.45;;;20.63;;
39486;SDS011;25173;50.430;18.926;2023-03-21T00:33:11;28.52;;;21.70;;
39486;SDS011;25173;50.430;18.926;2023-03-21T00:36:13;31.58;;;22.35;;
39486;SDS011;25173;50.430;18.926;2023-03-21T00:39:15;31.73;;;21.17;;
39486;SDS011;25173;50.430;18.926;2023-03-21T00:42:15;26.50;;;20.38;;
39486;SDS011;25173;50.430;18.926;2023-03-21T00:45:16;30.10;;;22.15;;
39486;SDS011;25173;50.430;18.926;2023-03-21T00:48:18;27.98;;;18.30;;
39486;SDS011;25173;50.430;18.926;2023-03-21T00:51:20;28.48;;;20.65;;
39486;SDS011;25173;50.430;18.926;2023-03-21T00:54:25;27.92;;;20.42;;
39486;SDS011;25173;50.430;18.926;2023-03-21T00:57:26;27.52;;;20.33;;
39486;SDS011;25173;50.430;18.926;2023-03-21T01:00:27;31.08;;;21.70;;
39486;SDS011;25173;50.430;18.926;2023-03-21T01:03:27;30.80;;;22.75;;
39486;SDS011;25173;50.430;18.926;2023-03-21T01:06:28;29.55;;;21.40;;
39486;SDS011;25173;50.430;18.926;2023-03-21T01:09:29;27.58;;;20.67;;
39486;SDS011;25173;50.430;18.926;2023-03-21T01:12:31;28.65;;;21.95;;
39486;SDS011;25173;50.430;18.926;2023-03-21T01:15:32;30.08;;;21.88;;
39486;SDS011;25173;50.430;18.926;2023-03-21T01:18:33;33.20;;;22.70;;
39486;SDS011;25173;50.430;18.926;2023-03-21T01:21:37;54.97;;;30.95;;
39486;SDS011;25173;50.430;18.926;2023-03-21T01:24:38;32.38;;;23.90;;
39486;SDS011;25173;50.430;18.926;2023-03-21T01:27:38;35.78;;;24.40;;
39486;SDS011;25173;50.430;18.926;2023-03-21T01:30:43;42.53;;;29.15;;
39486;SDS011;25173;50.430;18.926;2023-03-21T01:33:44;117.28;;;60.15;;
39486;SDS011;25173;50.430;18.926;2023-03-21T01:36:46;55.00;;;35.20;;
39486;SDS011;25173;50.430;18.926;2023-03-21T01:39:51;46.70;;;30.88;;
39486;SDS011;25173;50.430;18.926;2023-03-21T01:42:52;62.90;;;29.90;;
39486;SDS011;25173;50.430;18.926;2023-03-21T01:46:11;33.38;;;22.98;;
39486;SDS011;25173;50.430;18.926;2023-03-21T01:49:39;31.15;;;22.63;;
39486;SDS011;25173;50.430;18.926;2023-03-21T01:52:50;29.92;;;23.08;;
39486;SDS011;25173;50.430;18.926;2023-03-21T01:56:00;31.15;;;22.55;;
39486;SDS011;25173;50.430;18.926;2023-03-21T01:59:20;31.80;;;24.70;;
39486;SDS011;25173;50.430;18.926;2023-03-21T02:02:46;33.38;;;25.05;;
39486;SDS011;25173;50.430;18.926;2023-03-21T02:09:18;46.22;;;29.85;;
39486;SDS011;25173;50.430;18.926;2023-03-21T02:12:24;55.00;;;33.05;;
39486;SDS011;25173;50.430;18.926;2023-03-21T02:15:26;482.85;;;284.80;;
39486;SDS011;25173;50.430;18.926;2023-03-21T02:22:51;57.17;;;31.73;;
39486;SDS011;25173;50.430;18.926;2023-03-21T02:32:50;41.65;;;27.00;;
39486;SDS011;25173;50.430;18.926;2023-03-21T02:42:28;35.25;;;25.38;;
39486;SDS011;25173;50.430;18.926;2023-03-21T02:45:38;36.60;;;25.67;;
39486;SDS011;25173;50.430;18.926;2023-03-21T02:48:43;44.95;;;29.70;;
39486;SDS011;25173;50.430;18.926;2023-03-21T02:51:51;48.08;;;31.63;;
39486;SDS011;25173;50.430;18.926;2023-03-21T02:54:53;48.22;;;31.25;;
39486;SDS011;25173;50.430;18.926;2023-03-21T02:57:58;46.25;;;30.40;;
39486;SDS011;25173;50.430;18.926;2023-03-21T03:01:02;43.88;;;27.35;;
39486;SDS011;25173;50.430;18.926;2023-03-21T03:04:16;34.40;;;25.50;;
39486;SDS011;25173;50.430;18.926;2023-03-21T03:07:39;44.72;;;30.27;;
39486;SDS011;25173;50.430;18.926;2023-03-21T03:20:59;43.97;;;30.15;;
39486;SDS011;25173;50.430;18.926;2023-03-21T03:24:13;47.10;;;32.63;;
39486;SDS011;25173;50.430;18.926;2023-03-21T03:30:27;44.47;;;29.77;;
39486;SDS011;25173;50.430;18.926;2023-03-21T03:33:28;39.85;;;28.27;;
39486;SDS011;25173;50.430;18.926;2023-03-21T03:36:30;47.92;;;30.70;;
39486;SDS011;25173;50.430;18.926;2023-03-21T03:39:45;418.42;;;168.90;;
39486;SDS011;25173;50.430;18.926;2023-03-21T03:42:51;124.22;;;50.92;;
39486;SDS011;25173;50.430;18.926;2023-03-21T03:46:04;127.00;;;56.25;;
39486;SDS011;25173;50.430;18.926;2023-03-21T03:49:14;51.42;;;30.55;;
39486;SDS011;25173;50.430;18.926;2023-03-21T03:52:25;62.15;;;36.33;;
39486;SDS011;25173;50.430;18.926;2023-03-21T03:55:43;65.32;;;36.40;;
39486;SDS011;25173;50.430;18.926;2023-03-21T03:58:48;41.63;;;27.38;;
39486;SDS011;25173;50.430;18.926;2023-03-21T04:01:52;38.67;;;25.70;;
39486;SDS011;25173;50.430;18.926;2023-03-21T04:04:53;47.65;;;31.42;;
39486;SDS011;25173;50.430;18.926;2023-03-21T04:07:57;43.08;;;28.92;;
39486;SDS011;25173;50.430;18.926;2023-03-21T04:11:09;39.75;;;26.50;;
39486;SDS011;25173;50.430;18.926;2023-03-21T04:14:13;39.20;;;25.77;;
39486;SDS011;25173;50.430;18.926;2023-03-21T04:17:15;35.25;;;24.73;;
39486;SDS011;25173;50.430;18.926;2023-03-21T04:20:15;35.60;;;25.10;;
39486;SDS011;25173;50.430;18.926;2023-03-21T04:23:17;36.05;;;24.75;;
39486;SDS011;25173;50.430;18.926;2023-03-21T04:26:20;31.85;;;22.45;;
39486;SDS011;25173;50.430;18.926;2023-03-21T04:29:44;32.00;;;22.40;;
39486;SDS011;25173;50.430;18.926;2023-03-21T04:33:17;34.55;;;23.13;;
39486;SDS011;25173;50.430;18.926;2023-03-21T04:36:27;31.30;;;23.20;;
39486;SDS011;25173;50.430;18.926;2023-03-21T04:39:33;32.65;;;21.00;;
39486;SDS011;25173;50.430;18.926;2023-03-21T04:42:34;33.53;;;24.05;;
39486;SDS011;25173;50.430;18.926;2023-03-21T04:45:35;35.58;;;24.77;;
39486;SDS011;25173;50.430;18.926;2023-03-21T04:48:35;34.38;;;23.67;;
39486;SDS011;25173;50.430;18.926;2023-03-21T04:51:37;36.10;;;24.38;;
39486;SDS011;25173;50.430;18.926;2023-03-21T04:54:42;41.42;;;25.98;;
39486;SDS011;25173;50.430;18.926;2023-03-21T04:57:43;39.33;;;26.52;;
39486;SDS011;25173;50.430;18.926;2023-03-21T05:00:43;47.58;;;29.27;;
39486;SDS011;25173;50.430;18.926;2023-03-21T05:03:44;52.47;;;32.17;;
39486;SDS011;25173;50.430;18.926;2023-03-21T05:06:45;61.47;;;34.83;;
39486;SDS011;25173;50.430;18.926;2023-03-21T05:09:45;83.68;;;51.00;;
39486;SDS011;25173;50.430;18.926;2023-03-21T05:12:46;55.65;;;32.53;;
39486;SDS011;25173;50.430;18.926;2023-03-21T05:15:47;51.42;;;30.33;;
39486;SDS011;25173;50.430;18.926;2023-03-21T05:18:48;50.47;;;30.15;;
39486;SDS011;25173;50.430;18.926;2023-03-21T05:21:52;45.97;;;30.25;;
39486;SDS011;25173;50.430;18.926;2023-03-21T05:24:56;48.80;;;31.27;;
39486;SDS011;25173;50.430;18.926;2023-03-21T05:28:25;87.28;;;54.78;;
39486;SDS011;25173;50.430;18.926;2023-03-21T05:31:32;59.78;;;36.58;;
39486;SDS011;25173;50.430;18.926;2023-03-21T05:34:40;50.42;;;32.65;;
39486;SDS011;25173;50.430;18.926;2023-03-21T05:37:40;53.38;;;36.78;;
39486;SDS011;25173;50.430;18.926;2023-03-21T05:40:45;44.92;;;28.73;;
39486;SDS011;25173;50.430;18.926;2023-03-21T05:43:46;54.40;;;34.78;;
39486;SDS011;25173;50.430;18.926;2023-03-21T05:46:48;38.08;;;26.67;;
39486;SDS011;25173;50.430;18.926;2023-03-21T05:49:51;54.97;;;34.67;;
39486;SDS011;25173;50.430;18.926;2023-03-21T05:52:52;45.40;;;29.33;;
39486;SDS011;25173;50.430;18.926;2023-03-21T05:55:53;65.30;;;37.72;;
39486;SDS011;25173;50.430;18.926;2023-03-21T05:59:12;41.60;;;27.15;;
39486;SDS011;25173;50.430;18.926;2023-03-21T06:02:16;40.85;;;27.25;;
39486;SDS011;25173;50.430;18.926;2023-03-21T06:05:23;56.08;;;33.10;;
39486;SDS011;25173;50.430;18.926;2023-03-21T06:08:24;43.72;;;28.05;;
39486;SDS011;25173;50.430;18.926;2023-03-21T06:11:26;76.80;;;37.63;;
39486;SDS011;25173;50.430;18.926;2023-03-21T06:14:52;90.68;;;45.80;;
39486;SDS011;25173;50.430;18.926;2023-03-21T06:18:00;56.15;;;34.40;;
39486;SDS011;25173;50.430;18.926;2023-03-21T06:21:01;86.20;;;44.35;;
39486;SDS011;25173;50.430;18.926;2023-03-21T06:24:02;71.40;;;43.75;;
39486;SDS011;25173;50.430;18.926;2023-03-21T06:27:03;90.10;;;47.47;;
39486;SDS011;25173;50.430;18.926;2023-03-21T06:30:14;67.78;;;38.85;;
39486;SDS011;25173;50.430;18.926;2023-03-21T06:33:27;43.72;;;30.30;;
39486;SDS011;25173;50.430;18.926;2023-03-21T06:36:28;43.25;;;31.52;;
39486;SDS011;25173;50.430;18.926;2023-03-21T06:39:29;48.25;;;30.55;;
39486;SDS011;25173;50.430;18.926;2023-03-21T06:42:30;74.72;;;40.85;;
39486;SDS011;25173;50.430;18.926;2023-03-21T06:45:39;55.03;;;33.03;;
39486;SDS011;25173;50.430;18.926;2023-03-21T06:48:43;97.53;;;58.42;;
39486;SDS011;25173;50.430;18.926;2023-03-21T06:51:45;473.80;;;234.85;;
39486;SDS011;25173;50.430;18.926;2023-03-21T06:54:51;73.85;;;37.20;;
39486;SDS011;25173;50.430;18.926;2023-03-21T06:57:52;43.60;;;27.33;;
39486;SDS011;25173;50.430;18.926;2023-03-21T07:00:56;58.00;;;34.97;;
39486;SDS011;25173;50.430;18.926;2023-03-21T07:03:58;74.82;;;38.17;;
39486;SDS011;25173;50.430;18.926;2023-03-21T07:07:00;79.40;;;47.60;;
39486;SDS011;25173;50.430;18.926;2023-03-21T07:10:02;49.65;;;30.38;;
39486;SDS011;25173;50.430;18.926;2023-03-21T07:13:09;34.50;;;26.17;;
39486;SDS011;25173;50.430;18.926;2023-03-21T07:16:19;38.92;;;28.73;;
39486;SDS011;25173;50.430;18.926;2023-03-21T07:19:20;33.65;;;26.42;;
39486;SDS011;25173;50.430;18.926;2023-03-21T07:22:21;39.80;;;27.33;;
39486;SDS011;25173;50.430;18.926;2023-03-21T07:25:22;42.15;;;29.02;;
39486;SDS011;25173;50.430;18.926;2023-03-21T07:28:23;41.80;;;30.48;;
39486;SDS011;25173;50.430;18.926;2023-03-21T07:31:24;46.67;;;32.60;;
39486;SDS011;25173;50.430;18.926;2023-03-21T07:34:26;39.38;;;29.50;;
39486;SDS011;25173;50.430;18.926;2023-03-21T07:37:31;93.03;;;57.95;;
39486;SDS011;25173;50.430;18.926;2023-03-21T07:40:31;94.18;;;44.38;;
39486;SDS011;25173;50.430;18.926;2023-03-21T07:43:33;37.95;;;27.20;;
39486;SDS011;25173;50.430;18.926;2023-03-21T07:46:34;39.15;;;28.30;;
39486;SDS011;25173;50.430;18.926;2023-03-21T07:49:35;44.22;;;30.38;;
39486;SDS011;25173;50.430;18.926;2023-03-21T07:52:37;45.38;;;31.58;;
39486;SDS011;25173;50.430;18.926;2023-03-21T07:55:37;49.70;;;33.30;;
39486;SDS011;25173;50.430;18.926;2023-03-21T07:58:38;34.47;;;24.75;;
39486;SDS011;25173;50.430;18.926;2023-03-21T08:01:38;31.45;;;24.25;;
39486;SDS011;25173;50.430;18.926;2023-03-21T08:04:39;47.15;;;29.85;;
39486;SDS011;25173;50.430;18.926;2023-03-21T08:07:40;39.20;;;27.88;;
39486;SDS011;25173;50.430;18.926;2023-03-21T08:10:43;34.28;;;26.02;;
39486;SDS011;25173;50.430;18.926;2023-03-21T08:13:44;30.92;;;22.77;;
39486;SDS011;25173;50.430;18.926;2023-03-21T08:16:45;33.20;;;26.10;;
39486;SDS011;25173;50.430;18.926;2023-03-21T08:19:45;32.60;;;24.60;;
39486;SDS011;25173;50.430;18.926;2023-03-21T08:22:46;33.47;;;24.85;;
39486;SDS011;25173;50.430;18.926;2023-03-21T08:25:51;34.22;;;25.02;;
39486;SDS011;25173;50.430;18.926;2023-03-21T08:28:53;33.75;;;25.08;;
39486;SDS011;25173;50.430;18.926;2023-03-21T08:31:54;35.75;;;26.65;;
39486;SDS011;25173;50.430;18.926;2023-03-21T08:34:56;37.88;;;25.70;;
39486;SDS011;25173;50.430;18.926;2023-03-21T08:38:00;36.13;;;26.85;;
39486;SDS011;25173;50.430;18.926;2023-03-21T08:41:02;37.75;;;25.27;;
39486;SDS011;25173;50.430;18.926;2023-03-21T08:44:03;37.10;;;24.70;;
39486;SDS011;25173;50.430;18.926;2023-03-21T08:47:05;44.85;;;31.15;;
39486;SDS011;25173;50.430;18.926;2023-03-21T08:50:07;41.88;;;29.17;;
39486;SDS011;25173;50.430;18.926;2023-03-21T08:53:09;32.20;;;23.73;;
39486;SDS011;25173;50.430;18.926;2023-03-21T08:56:10;32.25;;;23.58;;
39486;SDS011;25173;50.430;18.926;2023-03-21T08:59:11;31.55;;;24.25;;
39486;SDS011;25173;50.430;18.926;2023-03-21T09:02:12;63.60;;;31.55;;
39486;SDS011;25173;50.430;18.926;2023-03-21T09:05:14;31.40;;;22.83;;
39486;SDS011;25173;50.430;18.926;2023-03-21T09:08:16;28.13;;;21.40;;
39486;SDS011;25173;50.430;18.926;2023-03-21T09:11:17;33.25;;;24.77;;
39486;SDS011;25173;50.430;18.926;2023-03-21T09:14:17;34.13;;;23.45;;
39486;SDS011;25173;50.430;18.926;2023-03-21T09:17:18;32.97;;;24.05;;
39486;SDS011;25173;50.430;18.926;2023-03-21T09:20:19;35.67;;;24.88;;
39486;SDS011;25173;50.430;18.926;2023-03-21T09:23:25;36.25;;;26.52;;
39486;SDS011;25173;50.430;18.926;2023-03-21T09:26:26;38.35;;;26.75;;
39486;SDS011;25173;50.430;18.926;2023-03-21T09:29:27;30.30;;;22.30;;
39486;SDS011;25173;50.430;18.926;2023-03-21T09:32:32;36.83;;;26.35;;
39486;SDS011;25173;50.430;18.926;2023-03-21T09:35:33;109.40;;;56.97;;
39486;SDS011;25173;50.430;18.926;2023-03-21T09:38:34;36.10;;;24.10;;
39486;SDS011;25173;50.430;18.926;2023-03-21T09:44:59;32.28;;;22.58;;
39486;SDS011;25173;50.430;18.926;2023-03-21T09:48:11;32.15;;;22.73;;
39486;SDS011;25173;50.430;18.926;2023-03-21T09:51:19;30.50;;;21.92;;
39486;SDS011;25173;50.430;18.926;2023-03-21T09:54:23;28.52;;;20.45;;
39486;SDS011;25173;50.430;18.926;2023-03-21T09:57:31;30.00;;;22.45;;
39486;SDS011;25173;50.430;18.926;2023-03-21T10:00:37;31.77;;;22.38;;
39486;SDS011;25173;50.430;18.926;2023-03-21T10:03:41;36.63;;;24.33;;
39486;SDS011;25173;50.430;18.926;2023-03-21T10:06:43;31.90;;;22.77;;
39486;SDS011;25173;50.430;18.926;2023-03-21T10:09:47;36.65;;;26.50;;
39486;SDS011;25173;50.430;18.926;2023-03-21T10:12:51;43.97;;;28.92;;
39486;SDS011;25173;50.430;18.926;2023-03-21T10:15:55;37.72;;;27.50;;
39486;SDS011;25173;50.430;18.926;2023-03-21T10:18:58;35.67;;;25.27;;
39486;SDS011;25173;50.430;18.926;2023-03-21T10:22:01;30.20;;;22.27;;
39486;SDS011;25173;50.430;18.926;2023-03-21T10:25:03;30.27;;;22.63;;
39486;SDS011;25173;50.430;18.926;2023-03-21T10:28:05;28.77;;;21.30;;
39486;SDS011;25173;50.430;18.926;2023-03-21T10:31:08;30.10;;;22.38;;
39486;SDS011;25173;50.430;18.926;2023-03-21T10:34:15;31.70;;;23.10;;
39486;SDS011;25173;50.430;18.926;2023-03-21T10:37:19;31.17;;;22.60;;
39486;SDS011;25173;50.430;18.926;2023-03-21T10:40:21;33.05;;;24.23;;
39486;SDS011;25173;50.430;18.926;2023-03-21T10:46:25;31.90;;;21.85;;
39486;SDS011;25173;50.430;18.926;2023-03-21T10:49:26;36.58;;;25.50;;
39486;SDS011;25173;50.430;18.926;2023-03-21T10:52:30;35.40;;;24.48;;
39486;SDS011;25173;50.430;18.926;2023-03-21T10:55:32;30.17;;;22.38;;
39486;SDS011;25173;50.430;18.926;2023-03-21T10:58:34;33.08;;;23.30;;
39486;SDS011;25173;50.430;18.926;2023-03-21T11:01:39;35.97;;;24.35;;
39486;SDS011;25173;50.430;18.926;2023-03-21T11:04:42;35.17;;;21.95;;
39486;SDS011;25173;50.430;18.926;2023-03-21T11:07:43;34.95;;;21.45;;
39486;SDS011;25173;50.430;18.926;2023-03-21T11:11:48;25.05;;;17.10;;
39486;SDS011;25173;50.430;18.926;2023-03-21T11:14:36;24.73;;;18.70;;
39486;SDS011;25173;50.430;18.926;2023-03-21T11:17:39;27.27;;;20.95;;
39486;SDS011;25173;50.430;18.926;2023-03-21T11:21:01;27.05;;;18.08;;
39486;SDS011;25173;50.430;18.926;2023-03-21T11:24:04;24.85;;;17.60;;
39486;SDS011;25173;50.430;18.926;2023-03-21T11:27:06;22.67;;;17.23;;
39486;SDS011;25173;50.430;18.926;2023-03-21T11:30:15;20.65;;;14.05;;
39486;SDS011;25173;50.430;18.926;2023-03-21T11:33:25;24.85;;;16.98;;
39486;SDS011;25173;50.430;18.926;2023-03-21T11:36:32;19.98;;;14.45;;
39486;SDS011;25173;50.430;18.926;2023-03-21T11:39:38;21.65;;;15.73;;
39486;SDS011;25173;50.430;18.926;2023-03-21T11:42:41;21.77;;;15.27;;
39486;SDS011;25173;50.430;18.926;2023-03-21T11:49:22;25.85;;;16.58;;
39486;SDS011;25173;50.430;18.926;2023-03-21T11:55:46;20.90;;;15.10;;
39486;SDS011;25173;50.430;18.926;2023-03-21T12:02:33;21.67;;;16.17;;
39486;SDS011;25173;50.430;18.926;2023-03-21T12:05:59;25.48;;;16.88;;
39486;SDS011;25173;50.430;18.926;2023-03-21T12:09:03;23.50;;;16.48;;
39486;SDS011;25173;50.430;18.926;2023-03-21T12:18:59;89.78;;;58.72;;
39486;SDS011;25173;50.430;18.926;2023-03-21T12:29:17;33.72;;;22.20;;
39486;SDS011;25173;50.430;18.926;2023-03-21T12:32:24;45.75;;;32.60;;
39486;SDS011;25173;50.430;18.926;2023-03-21T12:35:45;33.00;;;22.25;;
39486;SDS011;25173;50.430;18.926;2023-03-21T12:45:49;63.15;;;33.05;;
39486;SDS011;25173;50.430;18.926;2023-03-21T12:49:06;69.38;;;37.65;;
39486;SDS011;25173;50.430;18.926;2023-03-21T12:52:29;40.17;;;24.90;;
39486;SDS011;25173;50.430;18.926;2023-03-21T12:55:33;58.22;;;37.15;;
39486;SDS011;25173;50.430;18.926;2023-03-21T12:58:39;179.90;;;99.85;;
39486;SDS011;25173;50.430;18.926;2023-03-21T13:01:45;45.08;;;29.50;;
39486;SDS011;25173;50.430;18.926;2023-03-21T13:08:41;27.50;;;18.60;;
39486;SDS011;25173;50.430;18.926;2023-03-21T13:11:42;47.45;;;29.98;;
39486;SDS011;25173;50.430;18.926;2023-03-21T13:25:14;25.25;;;18.25;;
39486;SDS011;25173;50.430;18.926;2023-03-21T13:28:19;20.48;;;15.85;;
39486;SDS011;25173;50.430;18.926;2023-03-21T13:31:25;24.10;;;16.63;;
39486;SDS011;25173;50.430;18.926;2023-03-21T13:34:26;23.80;;;16.08;;
39486;SDS011;25173;50.430;18.926;2023-03-21T13:37:29;29.33;;;22.00;;
39486;SDS011;25173;50.430;18.926;2023-03-21T13:53:36;35.80;;;21.23;;
39486;SDS011;25173;50.430;18.926;2023-03-21T13:59:48;27.92;;;19.52;;
39486;SDS011;25173;50.430;18.926;2023-03-21T14:02:52;20.83;;;14.18;;
39486;SDS011;25173;50.430;18.926;2023-03-21T14:05:57;19.30;;;14.18;;
39486;SDS011;25173;50.430;18.926;2023-03-21T14:08:58;18.70;;;14.68;;
39486;SDS011;25173;50.430;18.926;2023-03-21T14:11:59;23.05;;;17.00;;
39486;SDS011;25173;50.430;18.926;2023-03-21T14:18:19;21.10;;;15.60;;
39486;SDS011;25173;50.430;18.926;2023-03-21T14:21:23;25.70;;;16.88;;
39486;SDS011;25173;50.430;18.926;2023-03-21T14:24:25;31.77;;;22.77;;
39486;SDS011;25173;50.430;18.926;2023-03-21T14:27:30;24.98;;;17.70;;
39486;SDS011;25173;50.430;18.926;2023-03-21T14:30:33;21.90;;;16.33;;
39486;SDS011;25173;50.430;18.926;2023-03-21T14:33:39;26.65;;;17.98;;
39486;SDS011;25173;50.430;18.926;2023-03-21T14:36:43;32.65;;;23.55;;
39486;SDS011;25173;50.430;18.926;2023-03-21T14:39:44;20.77;;;17.00;;
39486;SDS011;25173;50.430;18.926;2023-03-21T14:42:56;22.00;;;16.50;;
39486;SDS011;25173;50.430;18.926;2023-03-21T14:45:56;22.58;;;15.63;;
39486;SDS011;25173;50.430;18.926;2023-03-21T14:49:08;144.50;;;97.80;;
39486;SDS011;25173;50.430;18.926;2023-03-21T14:52:11;439.52;;;233.52;;
39486;SDS011;25173;50.430;18.926;2023-03-21T14:55:15;112.97;;;78.32;;
39486;SDS011;25173;50.430;18.926;2023-03-21T14:58:16;44.45;;;32.38;;
39486;SDS011;25173;50.430;18.926;2023-03-21T15:01:26;53.08;;;44.65;;
39486;SDS011;25173;50.430;18.926;2023-03-21T15:04:31;39.13;;;28.48;;
39486;SDS011;25173;50.430;18.926;2023-03-21T15:07:33;33.33;;;24.85;;
39486;SDS011;25173;50.430;18.926;2023-03-21T15:10:35;32.83;;;22.40;;
39486;SDS011;25173;50.430;18.926;2023-03-21T15:13:47;33.17;;;23.85;;
39486;SDS011;25173;50.430;18.926;2023-03-21T15:16:52;36.05;;;26.33;;
39486;SDS011;25173;50.430;18.926;2023-03-21T15:19:53;34.30;;;26.08;;
39486;SDS011;25173;50.430;18.926;2023-03-21T15:22:54;35.47;;;27.98;;
39486;SDS011;25173;50.430;18.926;2023-03-21T15:26:01;45.83;;;30.67;;
39486;SDS011;25173;50.430;18.926;2023-03-21T15:29:04;33.78;;;25.67;;
39486;SDS011;25173;50.430;18.926;2023-03-21T15:32:06;31.08;;;22.65;;
39486;SDS011;25173;50.430;18.926;2023-03-21T15:35:20;28.98;;;22.02;;
39486;SDS011;25173;50.430;18.926;2023-03-21T15:38:40;29.83;;;22.42;;
39486;SDS011;25173;50.430;18.926;2023-03-21T15:42:04;36.83;;;25.58;;
39486;SDS011;25173;50.430;18.926;2023-03-21T15:45:27;37.95;;;26.08;;
39486;SDS011;25173;50.430;18.926;2023-03-21T15:48:28;45.22;;;35.00;;
39486;SDS011;25173;50.430;18.926;2023-03-21T15:51:33;57.60;;;42.85;;
39486;SDS011;25173;50.430;18.926;2023-03-21T15:54:41;91.15;;;71.07;;
39486;SDS011;25173;50.430;18.926;2023-03-21T15:57:42;58.28;;;41.28;;
39486;SDS011;25173;50.430;18.926;2023-03-21T16:00:56;33.85;;;23.65;;
39486;SDS011;25173;50.430;18.926;2023-03-21T16:04:05;31.50;;;21.95;;
39486;SDS011;25173;50.430;18.926;2023-03-21T16:07:13;28.02;;;20.15;;
39486;SDS011;25173;50.430;18.926;2023-03-21T16:10:26;28.13;;;19.73;;
39486;SDS011;25173;50.430;18.926;2023-03-21T16:13:35;35.10;;;22.30;;
39486;SDS011;25173;50.430;18.926;2023-03-21T16:16:36;32.88;;;21.70;;
39486;SDS011;25173;50.430;18.926;2023-03-21T16:19:37;38.55;;;23.67;;
39486;SDS011;25173;50.430;18.926;2023-03-21T16:22:37;36.45;;;25.33;;
39486;SDS011;25173;50.430;18.926;2023-03-21T16:25:38;36.45;;;24.23;;
39486;SDS011;25173;50.430;18.926;2023-03-21T16:28:39;41.08;;;23.25;;
39486;SDS011;25173;50.430;18.926;2023-03-21T16:31:40;35.03;;;23.00;;
39486;SDS011;25173;50.430;18.926;2023-03-21T16:34:41;40.88;;;24.17;;
39486;SDS011;25173;50.430;18.926;2023-03-21T16:37:42;38.55;;;22.58;;
39486;SDS011;25173;50.430;18.926;2023-03-21T16:40:43;32.20;;;21.35;;
39486;SDS011;25173;50.430;18.926;2023-03-21T16:43:43;35.58;;;20.95;;
39486;SDS011;25173;50.430;18.926;2023-03-21T16:46:44;37.72;;;22.67;;
39486;SDS011;25173;50.430;18.926;2023-03-21T16:49:46;38.22;;;22.15;;
39486;SDS011;25173;50.430;18.926;2023-03-21T16:52:48;35.13;;;21.23;;
39486;SDS011;25173;50.430;18.926;2023-03-21T16:55:48;39.50;;;23.48;;
39486;SDS011;25173;50.430;18.926;2023-03-21T16:58:49;40.13;;;24.55;;
39486;SDS011;25173;50.430;18.926;2023-03-21T17:01:52;37.55;;;22.20;;
39486;SDS011;25173;50.430;18.926;2023-03-21T17:04:53;48.83;;;29.88;;
39486;SDS011;25173;50.430;18.926;2023-03-21T17:07:53;49.22;;;26.25;;
39486;SDS011;25173;50.430;18.926;2023-03-21T17:10:54;36.22;;;20.98;;
39486;SDS011;25173;50.430;18.926;2023-03-21T17:13:55;32.42;;;18.90;;
39486;SDS011;25173;50.430;18.926;2023-03-21T17:16:55;26.75;;;17.25;;
39486;SDS011;25173;50.430;18.926;2023-03-21T17:19:56;30.15;;;17.50;;
39486;SDS011;25173;50.430;18.926;2023-03-21T17:22:57;35.42;;;21.00;;
39486;SDS011;25173;50.430;18.926;2023-03-21T17:25:58;39.67;;;26.10;;
39486;SDS011;25173;50.430;18.926;2023-03-21T17:28:58;44.75;;;33.92;;
39486;SDS011;25173;50.430;18.926;2023-03-21T17:31:59;79.95;;;64.50;;
39486;SDS011;25173;50.430;18.926;2023-03-21T17:35:00;82.85;;;52.53;;
39486;SDS011;25173;50.430;18.926;2023-03-21T17:38:00;145.32;;;82.50;;
39486;SDS011;25173;50.430;18.926;2023-03-21T17:41:01;103.95;;;67.45;;
39486;SDS011;25173;50.430;18.926;2023-03-21T17:44:02;103.35;;;64.82;;
39486;SDS011;25173;50.430;18.926;2023-03-21T17:47:02;244.75;;;150.48;;
39486;SDS011;25173;50.430;18.926;2023-03-21T17:50:03;150.68;;;92.75;;
39486;SDS011;25173;50.430;18.926;2023-03-21T17:53:07;141.57;;;85.43;;
39486;SDS011;25173;50.430;18.926;2023-03-21T17:56:19;162.98;;;105.00;;
39486;SDS011;25173;50.430;18.926;2023-03-21T17:59:29;159.88;;;98.75;;
39486;SDS011;25173;50.430;18.926;2023-03-21T18:02:29;241.95;;;138.00;;
39486;SDS011;25173;50.430;18.926;2023-03-21T18:05:30;200.80;;;109.70;;
39486;SDS011;25173;50.430;18.926;2023-03-21T18:08:30;223.88;;;132.15;;
39486;SDS011;25173;50.430;18.926;2023-03-21T18:11:31;183.13;;;108.22;;
39486;SDS011;25173;50.430;18.926;2023-03-21T18:14:32;169.70;;;101.57;;
39486;SDS011;25173;50.430;18.926;2023-03-21T18:17:33;219.27;;;119.50;;
39486;SDS011;25173;50.430;18.926;2023-03-21T18:20:33;207.77;;;111.03;;
39486;SDS011;25173;50.430;18.926;2023-03-21T18:23:34;229.68;;;109.80;;
39486;SDS011;25173;50.430;18.926;2023-03-21T18:26:35;514.15;;;235.30;;
39486;SDS011;25173;50.430;18.926;2023-03-21T18:29:39;262.98;;;124.75;;
39486;SDS011;25173;50.430;18.926;2023-03-21T18:32:40;369.67;;;173.25;;
39486;SDS011;25173;50.430;18.926;2023-03-21T18:35:40;457.70;;;219.65;;
39486;SDS011;25173;50.430;18.926;2023-03-21T18:38:41;378.52;;;180.18;;
39486;SDS011;25173;50.430;18.926;2023-03-21T18:41:42;337.80;;;163.52;;
39486;SDS011;25173;50.430;18.926;2023-03-21T18:44:42;290.42;;;146.80;;
39486;SDS011;25173;50.430;18.926;2023-03-21T18:47:46;275.77;;;142.80;;
39486;SDS011;25173;50.430;18.926;2023-03-21T18:50:47;269.58;;;137.50;;
39486;SDS011;25173;50.430;18.926;2023-03-21T18:53:47;215.80;;;116.22;;
39486;SDS011;25173;50.430;18.926;2023-03-21T18:56:48;236.38;;;120.22;;
39486;SDS011;25173;50.430;18.926;2023-03-21T18:59:53;222.20;;;115.55;;
39486;SDS011;25173;50.430;18.926;2023-03-21T19:03:18;174.68;;;90.78;;
39486;SDS011;25173;50.430;18.926;2023-03-21T19:06:19;176.45;;;91.13;;
39486;SDS011;25173;50.430;18.926;2023-03-21T19:09:19;183.88;;;94.35;;
39486;SDS011;25173;50.430;18.926;2023-03-21T19:12:21;168.48;;;89.50;;
39486;SDS011;25173;50.430;18.926;2023-03-21T19:15:22;186.18;;;99.60;;
39486;SDS011;25173;50.430;18.926;2023-03-21T19:18:24;280.42;;;133.90;;
39486;SDS011;25173;50.430;18.926;2023-03-21T19:21:24;180.20;;;92.55;;
39486;SDS011;25173;50.430;18.926;2023-03-21T19:24:25;172.55;;;92.60;;
39486;SDS011;25173;50.430;18.926;2023-03-21T19:27:27;244.02;;;131.55;;